createdAt,value
2019-03-19T00:01:01.592Z,3.11
2019-03-19T00:03:30.962Z,3.12
2019-03-19T00:06:01.186Z,3.09
2019-03-19T00:08:32.365Z,3.06
2019-03-19T00:11:06.805Z,3.10
2019-03-19T00:13:43.247Z,3.16
2019-03-19T00:16:09.570Z,3.19
2019-03-19T00:18:38.771Z,3.18
2019-03-19T00:21:08.169Z,3.25
2019-03-19T00:23:37.405Z,3.25
2019-03-19T00:26:06.755Z,3.29
2019-03-19T00:28:36.113Z,3.34
2019-03-19T00:31:05.332Z,3.41
2019-03-19T00:33:34.741Z,3.46
2019-03-19T00:36:03.951Z,3.47
2019-03-19T00:38:33.195Z,3.48
2019-03-19T00:41:02.677Z,3.49
2019-03-19T00:43:31.902Z,3.51
2019-03-19T00:46:01.195Z,3.52
2019-03-19T00:48:30.397Z,3.50
2019-03-19T00:50:59.592Z,3.49
2019-03-19T00:53:28.865Z,3.52
2019-03-19T00:55:58.119Z,3.52
2019-03-19T00:58:27.342Z,3.52
2019-03-19T01:00:56.563Z,3.50
2019-03-19T01:03:25.759Z,3.50
2019-03-19T01:05:54.957Z,3.49
2019-03-19T01:08:24.155Z,3.50
2019-03-19T01:10:53.371Z,3.45
2019-03-19T01:13:22.556Z,3.44
2019-03-19T01:15:51.774Z,3.50
2019-03-19T01:18:21.048Z,3.50
2019-03-19T01:20:50.246Z,3.47
2019-03-19T01:23:19.461Z,3.48
2019-03-19T01:25:55.657Z,3.47
2019-03-19T01:28:17.895Z,3.44
2019-03-19T01:30:47.133Z,3.45
2019-03-19T01:33:16.653Z,3.39
2019-03-19T01:35:45.879Z,3.39
2019-03-19T01:38:15.238Z,3.39
2019-03-19T01:40:44.465Z,3.38
2019-03-19T01:43:13.705Z,3.39
2019-03-19T01:45:42.931Z,3.34
2019-03-19T01:48:12.137Z,3.30
2019-03-19T01:50:41.379Z,3.31
2019-03-19T01:53:10.592Z,3.33
2019-03-19T01:55:39.848Z,3.29
2019-03-19T01:58:09.075Z,3.28
2019-03-19T02:00:38.336Z,3.21
2019-03-19T02:03:07.573Z,3.18
2019-03-19T02:05:36.791Z,3.17
2019-03-19T02:08:06.027Z,3.16
2019-03-19T02:10:35.263Z,3.21
2019-03-19T02:13:04.499Z,3.23
2019-03-19T02:15:33.738Z,3.23
2019-03-19T02:18:03.003Z,3.26
2019-03-19T02:20:32.216Z,3.26
2019-03-19T02:23:01.507Z,3.27
2019-03-19T02:25:30.732Z,3.21
2019-03-19T02:27:59.907Z,3.19
2019-03-19T02:30:29.138Z,3.22
2019-03-19T02:32:58.363Z,3.21
2019-03-19T02:35:27.773Z,3.18
2019-03-19T02:37:57.132Z,3.17
2019-03-19T02:40:26.323Z,3.20
2019-03-19T02:42:55.663Z,3.17
2019-03-19T02:45:24.941Z,3.14
2019-03-19T02:47:54.199Z,3.13
2019-03-19T02:50:23.471Z,3.07
2019-03-19T02:52:52.736Z,3.02
2019-03-19T02:55:21.971Z,2.98
2019-03-19T02:57:51.236Z,2.94
2019-03-19T03:00:20.460Z,2.88
2019-03-19T03:02:49.681Z,2.84
2019-03-19T03:05:18.903Z,2.80
2019-03-19T03:07:48.134Z,2.80
2019-03-19T03:10:17.401Z,2.75
2019-03-19T03:12:46.578Z,2.73
2019-03-19T03:15:15.815Z,2.69
2019-03-19T03:17:45.023Z,2.66
2019-03-19T03:20:14.244Z,2.64
2019-03-19T03:22:43.474Z,2.66
2019-03-19T03:25:12.704Z,2.65
2019-03-19T03:27:42.001Z,2.61
2019-03-19T03:30:11.926Z,2.58
2019-03-19T03:32:41.181Z,2.56
2019-03-19T03:35:10.516Z,2.61
2019-03-19T03:37:39.786Z,2.53
2019-03-19T03:40:10.276Z,2.48
2019-03-19T03:42:42.779Z,2.45
2019-03-19T03:45:09.084Z,2.43
2019-03-19T03:47:38.401Z,2.44
2019-03-19T03:50:08.404Z,2.41
2019-03-19T03:52:37.677Z,2.42
2019-03-19T03:55:07.712Z,2.41
2019-03-19T03:57:36.930Z,2.39
2019-03-19T04:00:08.687Z,2.44
2019-03-19T04:02:37.977Z,2.37
2019-03-19T04:05:07.281Z,2.35
2019-03-19T04:07:36.612Z,2.34
2019-03-19T04:10:06.154Z,2.30
2019-03-19T04:12:35.378Z,2.23
2019-03-19T04:15:05.214Z,2.26
2019-03-19T04:17:34.381Z,2.21
2019-03-19T04:20:03.639Z,2.23
2019-03-19T04:22:32.874Z,2.20
2019-03-19T04:25:02.104Z,2.19
2019-03-19T04:27:31.309Z,2.17
2019-03-19T04:30:00.549Z,2.12
2019-03-19T04:32:29.715Z,2.08
2019-03-19T04:34:58.992Z,2.10
2019-03-19T04:37:28.287Z,2.14
2019-03-19T04:39:57.499Z,2.12
2019-03-19T04:42:26.789Z,2.14
2019-03-19T04:44:56.001Z,2.20
2019-03-19T04:47:25.233Z,2.20
2019-03-19T04:49:54.593Z,2.24
2019-03-19T04:52:23.883Z,2.28
2019-03-19T04:54:53.099Z,2.26
2019-03-19T04:57:26.822Z,2.29
2019-03-19T04:59:51.509Z,2.25
2019-03-19T05:02:20.733Z,2.25
2019-03-19T05:04:49.992Z,2.30
2019-03-19T05:07:19.269Z,2.31
2019-03-19T05:09:48.531Z,2.37
2019-03-19T05:12:17.832Z,2.38
2019-03-19T05:14:47.033Z,2.41
2019-03-19T05:17:16.299Z,2.43
2019-03-19T05:19:45.488Z,2.53
2019-03-19T05:22:14.712Z,2.54
2019-03-19T05:24:43.928Z,2.52
2019-03-19T05:27:14.067Z,2.52
2019-03-19T05:29:42.395Z,2.51
2019-03-19T05:32:11.611Z,2.53
2019-03-19T05:34:40.837Z,2.48
2019-03-19T05:37:10.096Z,2.56
2019-03-19T05:39:39.407Z,2.61
2019-03-19T05:42:08.719Z,2.58
2019-03-19T05:44:38.003Z,2.55
2019-03-19T05:47:07.315Z,2.53
2019-03-19T05:49:36.561Z,2.50
2019-03-19T05:52:05.913Z,2.49
2019-03-19T05:54:35.189Z,2.53
2019-03-19T05:57:04.390Z,2.45
2019-03-19T05:59:33.590Z,2.45
2019-03-19T06:02:02.911Z,1.93
2019-03-19T06:04:32.195Z,2.49
2019-03-19T06:07:03.242Z,2.51
2019-03-19T06:09:32.424Z,2.50
2019-03-19T06:12:01.631Z,2.50
2019-03-19T06:14:31.119Z,2.53
2019-03-19T06:17:00.396Z,2.52
2019-03-19T06:19:29.649Z,2.53
2019-03-19T06:21:58.832Z,2.56
2019-03-19T06:24:28.071Z,2.64
2019-03-19T06:26:57.314Z,2.70
2019-03-19T06:29:26.552Z,2.75
2019-03-19T06:31:55.748Z,2.74
2019-03-19T06:34:25.024Z,2.84
2019-03-19T06:36:54.472Z,2.92
2019-03-19T06:39:23.767Z,2.96
2019-03-19T06:41:53.055Z,3.00
2019-03-19T06:44:22.277Z,2.99
2019-03-19T06:46:51.514Z,3.04
2019-03-19T06:49:20.710Z,3.04
2019-03-19T06:51:49.919Z,3.05
2019-03-19T06:54:19.144Z,2.99
2019-03-19T06:56:48.343Z,2.99
2019-03-19T06:59:17.655Z,2.97
2019-03-19T07:01:46.939Z,3.01
2019-03-19T07:04:16.235Z,3.06
2019-03-19T07:06:45.485Z,3.11
2019-03-19T07:09:14.705Z,3.25
2019-03-19T07:11:43.903Z,3.30
2019-03-19T07:14:13.120Z,3.48
2019-03-19T07:16:42.335Z,3.65
2019-03-19T07:19:11.609Z,3.71
2019-03-19T07:21:40.789Z,3.74
2019-03-19T07:24:10.067Z,3.85
2019-03-19T07:26:39.277Z,3.97
2019-03-19T07:29:08.557Z,4.11
2019-03-19T07:31:37.777Z,4.35
2019-03-19T07:34:07.103Z,4.54
2019-03-19T07:36:36.311Z,4.55
2019-03-19T07:39:08.331Z,4.76
2019-03-19T07:41:37.579Z,4.93
2019-03-19T07:44:06.852Z,5.22
2019-03-19T07:46:36.158Z,5.26
2019-03-19T07:49:05.415Z,5.25
2019-03-19T07:51:34.640Z,5.46
2019-03-19T07:54:03.956Z,5.49
2019-03-19T07:56:33.310Z,5.26
2019-03-19T07:59:02.576Z,5.35
2019-03-19T08:01:31.923Z,5.13
2019-03-19T08:04:01.353Z,4.85
2019-03-19T08:06:32.674Z,4.64
2019-03-19T08:09:00.087Z,4.64
2019-03-19T08:11:29.443Z,4.85
2019-03-19T08:13:58.689Z,5.06
2019-03-19T08:16:27.934Z,5.09
2019-03-19T08:18:57.228Z,5.31
2019-03-19T08:21:26.406Z,5.30
2019-03-19T08:23:55.660Z,5.64
2019-03-19T08:26:24.988Z,5.67
2019-03-19T08:28:55.516Z,5.71
2019-03-19T08:31:23.462Z,6.06
2019-03-19T08:33:52.762Z,6.10
2019-03-19T08:36:22.026Z,6.02
2019-03-19T08:38:51.240Z,5.85
2019-03-19T08:41:20.644Z,6.02
2019-03-19T08:43:49.911Z,6.42
2019-03-19T08:46:19.171Z,6.39
2019-03-19T08:48:48.382Z,6.34
2019-03-19T08:51:17.627Z,6.53
2019-03-19T08:53:46.942Z,6.53
2019-03-19T08:56:16.147Z,6.72
2019-03-19T08:58:45.436Z,6.70
2019-03-19T09:01:14.628Z,6.77
2019-03-19T09:03:43.886Z,6.95
2019-03-19T09:06:13.137Z,6.85
2019-03-19T09:08:42.413Z,7.21
2019-03-19T09:11:11.731Z,7.07
2019-03-19T09:13:41.013Z,7.16
2019-03-19T09:16:10.299Z,7.34
2019-03-19T09:18:39.519Z,6.86
2019-03-19T09:21:08.826Z,7.20
2019-03-19T09:23:38.112Z,7.44
2019-03-19T09:26:07.497Z,7.27
2019-03-19T09:28:36.724Z,7.16
2019-03-19T09:31:05.918Z,7.22
2019-03-19T09:33:35.127Z,6.90
2019-03-19T09:36:04.422Z,6.68
2019-03-19T09:38:33.737Z,6.72
2019-03-19T09:41:03.046Z,6.67
2019-03-19T09:43:32.325Z,6.72
2019-03-19T09:46:01.575Z,6.58
2019-03-19T09:48:30.823Z,7.43
2019-03-19T09:51:00.139Z,7.92
2019-03-19T09:53:29.426Z,8.63
2019-03-19T09:55:58.673Z,9.06
2019-03-19T09:58:27.976Z,9.04
2019-03-19T10:00:57.265Z,9.04
2019-03-19T10:03:26.535Z,8.87
2019-03-19T10:05:55.971Z,9.70
2019-03-19T10:08:25.190Z,9.31
2019-03-19T10:10:54.467Z,10.24
2019-03-19T10:13:23.726Z,9.97
2019-03-19T10:15:52.930Z,10.07
2019-03-19T10:18:22.322Z,9.02
2019-03-19T10:20:51.607Z,8.60
2019-03-19T10:23:20.847Z,7.78
2019-03-19T10:25:50.090Z,7.99
2019-03-19T10:28:19.319Z,7.94
2019-03-19T10:30:48.659Z,8.65
2019-03-19T10:33:17.946Z,9.44
2019-03-19T10:35:47.341Z,10.39
2019-03-19T10:38:16.576Z,10.79
2019-03-19T10:40:45.806Z,10.40
2019-03-19T10:43:15.181Z,9.77
2019-03-19T10:45:44.447Z,8.28
2019-03-19T10:48:13.768Z,8.28
2019-03-19T10:50:43.037Z,7.91
2019-03-19T10:53:12.357Z,7.77
2019-03-19T10:55:43.400Z,7.56
2019-03-19T10:58:11.506Z,7.75
2019-03-19T11:00:40.180Z,7.69
2019-03-19T11:03:09.442Z,7.22
2019-03-19T11:05:38.754Z,7.30
2019-03-19T11:08:07.973Z,7.88
2019-03-19T11:10:37.271Z,8.92
2019-03-19T11:13:06.550Z,10.00
2019-03-19T11:15:35.874Z,10.85
2019-03-19T11:18:05.436Z,10.89
2019-03-19T11:20:34.769Z,10.61
2019-03-19T11:23:04.189Z,10.35
2019-03-19T11:25:33.538Z,9.79
2019-03-19T11:28:02.882Z,9.40
2019-03-19T11:30:32.096Z,9.06
2019-03-19T11:33:01.293Z,8.43
2019-03-19T11:35:30.594Z,8.29
2019-03-19T11:37:59.961Z,8.07
2019-03-19T11:40:29.228Z,8.07
2019-03-19T11:42:58.518Z,8.46
2019-03-19T11:45:27.832Z,9.18
2019-03-19T11:47:57.135Z,8.59
2019-03-19T11:50:26.431Z,8.49
2019-03-19T11:52:55.576Z,8.49
2019-03-19T11:55:24.875Z,8.05
2019-03-19T11:57:54.171Z,8.37
2019-03-19T12:00:28.914Z,8.39
2019-03-19T12:02:58.186Z,8.39
2019-03-19T12:05:27.374Z,8.54
2019-03-19T12:07:56.634Z,8.95
2019-03-19T12:10:25.859Z,8.92
2019-03-19T12:12:55.106Z,9.10
2019-03-19T12:15:24.294Z,9.10
2019-03-19T12:17:53.566Z,9.20
2019-03-19T12:20:22.776Z,9.66
2019-03-19T12:22:52.002Z,10.47
2019-03-19T12:25:21.230Z,11.07
2019-03-19T12:27:50.923Z,12.18
2019-03-19T12:30:22.596Z,11.54
2019-03-19T12:32:49.459Z,10.99
2019-03-19T12:35:18.826Z,10.04
2019-03-19T12:37:48.038Z,9.44
2019-03-19T12:40:17.251Z,9.35
2019-03-19T12:42:46.569Z,9.03
2019-03-19T12:45:15.815Z,8.88
2019-03-19T12:47:45.083Z,8.88
2019-03-19T12:50:15.644Z,10.06
2019-03-19T12:52:44.877Z,11.09
2019-03-19T12:55:14.122Z,10.21
2019-03-19T12:57:43.376Z,10.09
2019-03-19T13:00:17.107Z,9.07
2019-03-19T13:02:46.412Z,9.07
2019-03-19T13:05:15.682Z,8.88
2019-03-19T13:07:47.440Z,9.92
2019-03-19T13:10:16.289Z,10.95
2019-03-19T13:12:45.640Z,10.66
2019-03-19T13:15:15.280Z,10.35
2019-03-19T13:17:44.574Z,10.33
2019-03-19T13:20:14.026Z,10.64
2019-03-19T13:22:43.354Z,10.42
2019-03-19T13:25:14.381Z,11.42
2019-03-19T13:27:43.722Z,11.32
2019-03-19T13:30:17.462Z,10.86
2019-03-19T13:32:46.799Z,11.27
2019-03-19T13:35:16.169Z,12.17
2019-03-19T13:37:45.394Z,12.52
2019-03-19T13:40:15.687Z,12.07
2019-03-19T13:42:45.093Z,11.06
2019-03-19T13:45:14.766Z,10.30
2019-03-19T13:47:43.980Z,9.93
2019-03-19T13:50:13.266Z,9.48
2019-03-19T13:52:42.594Z,9.29
2019-03-19T13:55:12.614Z,8.94
2019-03-19T13:57:41.899Z,8.79
2019-03-19T14:00:12.233Z,8.73
2019-03-19T14:02:41.706Z,8.77
2019-03-19T14:05:11.046Z,8.96
2019-03-19T14:07:40.297Z,9.03
2019-03-19T14:10:09.970Z,9.24
2019-03-19T14:12:39.262Z,9.04
2019-03-19T14:15:10.603Z,8.96
2019-03-19T14:17:39.896Z,8.79
2019-03-19T14:20:10.628Z,8.61
2019-03-19T14:22:39.830Z,8.40
2019-03-19T14:25:09.364Z,8.34
2019-03-19T14:27:38.657Z,8.28
2019-03-19T14:30:10.402Z,8.48
2019-03-19T14:32:39.634Z,9.44
2019-03-19T14:35:09.022Z,9.44
2019-03-19T14:37:38.302Z,9.51
2019-03-19T14:40:08.984Z,9.63
2019-03-19T14:42:38.181Z,9.82
2019-03-19T14:45:07.658Z,9.98
2019-03-19T14:47:36.944Z,9.91
2019-03-19T14:50:06.564Z,10.74
2019-03-19T14:52:35.760Z,11.31
2019-03-19T14:55:05.472Z,11.04
2019-03-19T14:57:34.764Z,10.84
2019-03-19T15:00:04.908Z,10.75
2019-03-19T15:02:34.182Z,10.64
2019-03-19T15:05:03.458Z,10.45
2019-03-19T15:07:32.640Z,9.97
2019-03-19T15:10:01.905Z,9.52
2019-03-19T15:12:31.119Z,9.10
2019-03-19T15:15:00.342Z,8.96
2019-03-19T15:17:29.572Z,8.72
2019-03-19T15:19:58.920Z,8.72
2019-03-19T15:22:32.471Z,8.76
2019-03-19T15:24:57.568Z,8.82
2019-03-19T15:27:26.892Z,8.82
2019-03-19T15:29:56.313Z,8.92
2019-03-19T15:32:25.517Z,8.97
2019-03-19T15:34:54.712Z,8.92
2019-03-19T15:37:24.012Z,8.85
2019-03-19T15:39:53.320Z,8.85
2019-03-19T15:42:22.586Z,8.88
2019-03-19T15:44:51.805Z,8.76
2019-03-19T15:47:21.120Z,8.74
2019-03-19T15:49:50.331Z,8.74
2019-03-19T15:52:19.769Z,8.95
2019-03-19T15:54:48.887Z,8.95
2019-03-19T15:57:18.215Z,9.02
2019-03-19T15:59:47.479Z,9.00
2019-03-19T16:02:16.700Z,8.96
2019-03-19T16:04:45.963Z,8.99
2019-03-19T16:07:15.199Z,8.82
2019-03-19T16:09:44.637Z,8.29
2019-03-19T16:12:13.902Z,8.68
2019-03-19T16:14:43.122Z,7.44
2019-03-19T16:17:12.354Z,7.44
2019-03-19T16:19:41.595Z,8.62
2019-03-19T16:22:10.920Z,8.62
2019-03-19T16:24:41.775Z,8.59
2019-03-19T16:27:11.077Z,8.56
2019-03-19T16:29:40.593Z,8.72
2019-03-19T16:32:09.834Z,8.41
2019-03-19T16:34:39.639Z,8.50
2019-03-19T16:37:08.879Z,8.43
2019-03-19T16:39:38.191Z,8.30
2019-03-19T16:42:07.796Z,8.30
2019-03-19T16:44:37.177Z,8.33
2019-03-19T16:47:06.632Z,8.33
2019-03-19T16:49:36.557Z,8.55
2019-03-19T16:52:05.889Z,8.55
2019-03-19T16:54:35.154Z,8.55
2019-03-19T16:57:04.434Z,8.51
2019-03-19T16:59:33.671Z,8.38
2019-03-19T17:02:03.020Z,8.43
2019-03-19T17:04:32.339Z,8.35
2019-03-19T17:07:01.598Z,8.31
2019-03-19T17:09:34.250Z,8.34
2019-03-19T17:12:03.487Z,8.25
2019-03-19T17:14:32.883Z,8.31
2019-03-19T17:17:02.315Z,8.23
2019-03-19T17:19:31.915Z,8.22
2019-03-19T17:22:01.453Z,8.13
2019-03-19T17:24:30.800Z,8.01
2019-03-19T17:27:00.203Z,7.98
2019-03-19T17:29:29.491Z,7.92
2019-03-19T17:31:58.713Z,7.80
2019-03-19T17:34:28.063Z,7.68
2019-03-19T17:36:57.274Z,7.60
2019-03-19T17:39:26.502Z,7.50
2019-03-19T17:41:55.857Z,7.49
2019-03-19T17:44:25.084Z,7.35
2019-03-19T17:47:03.312Z,7.20
2019-03-19T17:49:32.667Z,7.12
2019-03-19T17:52:01.931Z,7.01
2019-03-19T17:54:31.426Z,6.95
2019-03-19T17:57:00.732Z,6.85
2019-03-19T17:59:30.050Z,6.74
2019-03-19T18:02:23.350Z,6.67
2019-03-19T18:04:40.985Z,6.57
2019-03-19T18:07:10.216Z,6.52
2019-03-19T18:09:39.571Z,6.41
2019-03-19T18:12:08.945Z,6.33
2019-03-19T18:14:38.228Z,6.24
2019-03-19T18:17:07.514Z,6.18
2019-03-19T18:19:36.733Z,6.12
2019-03-19T18:22:06.011Z,6.11
2019-03-19T18:24:35.459Z,6.07
2019-03-19T18:27:04.700Z,6.06
2019-03-19T18:29:34.162Z,6.00
2019-03-19T18:32:03.541Z,5.94
2019-03-19T18:34:32.807Z,5.87
2019-03-19T18:37:02.165Z,5.81
2019-03-19T18:39:31.642Z,5.76
2019-03-19T18:42:00.902Z,5.69
2019-03-19T18:44:30.181Z,5.65
2019-03-19T18:46:59.613Z,5.59
2019-03-19T18:49:29.396Z,5.55
2019-03-19T18:51:58.681Z,5.47
2019-03-19T18:54:27.970Z,5.43
2019-03-19T18:56:57.673Z,5.37
2019-03-19T18:59:26.968Z,5.31
2019-03-19T19:01:56.277Z,5.25
2019-03-19T19:04:25.588Z,5.21
2019-03-19T19:06:54.893Z,5.14
2019-03-19T19:09:24.418Z,5.11
2019-03-19T19:11:53.690Z,5.09
2019-03-19T19:14:23.110Z,5.08
2019-03-19T19:16:52.507Z,5.08
2019-03-19T19:19:22.059Z,5.06
2019-03-19T19:21:51.426Z,5.05
2019-03-19T19:24:20.949Z,3.43
2019-03-19T19:26:50.201Z,5.03
2019-03-19T19:29:19.627Z,5.04
2019-03-19T19:31:49.017Z,5.04
2019-03-19T19:34:18.562Z,5.03
2019-03-19T19:36:48.089Z,5.02
2019-03-19T19:39:17.334Z,5.00
2019-03-19T19:41:46.716Z,4.99
2019-03-19T19:44:15.910Z,4.96
2019-03-19T19:46:45.282Z,4.94
2019-03-19T19:49:14.759Z,4.92
2019-03-19T19:51:43.981Z,4.90
2019-03-19T19:54:13.390Z,4.84
2019-03-19T19:56:42.724Z,4.83
2019-03-19T19:59:12.122Z,4.79
2019-03-19T20:01:41.446Z,4.78
2019-03-19T20:04:10.976Z,4.76
2019-03-19T20:06:40.214Z,4.74
2019-03-19T20:09:09.755Z,4.72
2019-03-19T20:11:38.882Z,4.69
2019-03-19T20:14:08.230Z,4.65
2019-03-19T20:16:37.486Z,4.61
2019-03-19T20:19:06.743Z,4.59
2019-03-19T20:21:36.062Z,4.58
2019-03-19T20:24:05.336Z,4.56
2019-03-19T20:26:34.657Z,4.55
2019-03-19T20:29:03.942Z,4.54
2019-03-19T20:31:33.187Z,4.52
2019-03-19T20:34:02.471Z,4.49
2019-03-19T20:36:31.883Z,4.49
2019-03-19T20:39:01.119Z,4.46
2019-03-19T20:41:30.360Z,4.46
2019-03-19T20:43:59.558Z,4.44
2019-03-19T20:46:28.742Z,4.42
2019-03-19T20:48:58.020Z,4.40
2019-03-19T20:51:27.214Z,4.38
2019-03-19T20:53:56.478Z,4.37
2019-03-19T20:56:25.662Z,4.34
2019-03-19T20:58:54.978Z,4.32
2019-03-19T21:01:24.238Z,4.41
2019-03-19T21:03:53.458Z,4.62
2019-03-19T21:06:22.732Z,4.82
2019-03-19T21:08:52.088Z,4.73
2019-03-19T21:11:21.337Z,4.62
2019-03-19T21:13:50.675Z,4.50
2019-03-19T21:16:19.929Z,4.21
2019-03-19T21:18:49.129Z,4.29
2019-03-19T21:21:18.391Z,4.21
2019-03-19T21:23:47.588Z,4.14
2019-03-19T21:26:16.857Z,4.08
2019-03-19T21:28:46.168Z,4.04
2019-03-19T21:31:15.561Z,3.99
2019-03-19T21:33:51.150Z,3.92
2019-03-19T21:36:14.067Z,3.87
2019-03-19T21:38:43.452Z,3.81
2019-03-19T21:41:12.688Z,3.77
2019-03-19T21:43:41.883Z,3.75
2019-03-19T21:46:11.135Z,3.71
2019-03-19T21:48:40.448Z,3.69
2019-03-19T21:51:09.710Z,3.67
2019-03-19T21:53:38.919Z,3.67
2019-03-19T21:56:08.254Z,3.62
2019-03-19T21:58:37.554Z,3.60
2019-03-19T22:01:06.770Z,3.57
2019-03-19T22:03:35.988Z,3.57
2019-03-19T22:06:05.284Z,3.56
2019-03-19T22:08:34.436Z,3.55
2019-03-19T22:11:03.661Z,3.52
2019-03-19T22:13:32.944Z,3.48
2019-03-19T22:16:02.194Z,3.44
2019-03-19T22:18:31.478Z,3.39
2019-03-19T22:21:00.749Z,3.34
2019-03-19T22:23:29.956Z,3.32
2019-03-19T22:25:59.275Z,3.28
2019-03-19T22:28:28.482Z,3.24
2019-03-19T22:30:57.747Z,3.22
2019-03-19T22:33:27.005Z,3.20
2019-03-19T22:35:56.370Z,3.17
2019-03-19T22:38:25.645Z,3.11
2019-03-19T22:40:54.961Z,3.05
2019-03-19T22:43:25.980Z,2.98
2019-03-19T22:45:53.394Z,2.93
2019-03-19T22:48:22.598Z,2.85
2019-03-19T22:50:52.059Z,2.81
2019-03-19T22:53:21.344Z,2.80
2019-03-19T22:55:50.544Z,2.78
2019-03-19T22:58:19.871Z,2.76
2019-03-19T23:00:49.904Z,2.73
2019-03-19T23:03:19.132Z,2.71
2019-03-19T23:05:48.346Z,2.71
2019-03-19T23:08:17.592Z,2.71
2019-03-19T23:10:46.858Z,2.70
2019-03-19T23:13:16.090Z,2.70
2019-03-19T23:15:45.324Z,2.66
2019-03-19T23:18:14.570Z,2.64
2019-03-19T23:20:43.884Z,2.62
2019-03-19T23:23:13.113Z,2.65
2019-03-19T23:25:42.319Z,2.59
2019-03-19T23:28:11.507Z,2.57
2019-03-19T23:30:40.780Z,2.57
2019-03-19T23:33:09.974Z,2.57
2019-03-19T23:35:39.233Z,2.56
2019-03-19T23:38:08.486Z,2.52
2019-03-19T23:40:37.769Z,2.50
2019-03-19T23:43:07.014Z,2.49
2019-03-19T23:45:36.246Z,2.48
2019-03-19T23:48:05.479Z,2.48
2019-03-19T23:50:34.676Z,2.51
2019-03-19T23:53:03.955Z,2.53
2019-03-19T23:55:33.282Z,2.53
2019-03-19T23:58:02.564Z,2.55
